sensor_id;sensor_type;location;lat;lon;timestamp;temperature;humidity
1447;DHT22;717;51.522;7.266;2022-07-10T00:01:39;20.90;92.20
1447;DHT22;717;51.522;7.266;2022-07-10T00:04:06;20.90;92.20
1447;DHT22;717;51.522;7.266;2022-07-10T00:06:32;20.80;92.20
1447;DHT22;717;51.522;7.266;2022-07-10T00:08:59;20.80;92.20
1447;DHT22;717;51.522;7.266;2022-07-10T00:11:26;20.80;92.20
1447;DHT22;717;51.522;7.266;2022-07-10T00:13:54;20.80;92.20
1447;DHT22;717;51.522;7.266;2022-07-10T00:16:20;20.70;92.20
1447;DHT22;717;51.522;7.266;2022-07-10T00:18:47;20.70;92.20
1447;DHT22;717;51.522;7.266;2022-07-10T00:21:14;20.70;92.30
1447;DHT22;717;51.522;7.266;2022-07-10T00:23:41;20.70;92.30
1447;DHT22;717;51.522;7.266;2022-07-10T00:26:08;20.60;92.40
1447;DHT22;717;51.522;7.266;2022-07-10T00:28:35;20.60;92.40
1447;DHT22;717;51.522;7.266;2022-07-10T00:31:04;20.60;92.70
1447;DHT22;717;51.522;7.266;2022-07-10T00:33:31;20.60;92.40
1447;DHT22;717;51.522;7.266;2022-07-10T00:35:58;20.60;92.50
1447;DHT22;717;51.522;7.266;2022-07-10T00:38:24;20.60;92.50
1447;DHT22;717;51.522;7.266;2022-07-10T00:40:51;20.60;92.50
1447;DHT22;717;51.522;7.266;2022-07-10T00:43:19;20.60;92.50
1447;DHT22;717;51.522;7.266;2022-07-10T00:45:45;20.60;92.50
1447;DHT22;717;51.522;7.266;2022-07-10T00:48:13;20.60;92.60
1447;DHT22;717;51.522;7.266;2022-07-10T00:50:41;20.50;92.60
1447;DHT22;717;51.522;7.266;2022-07-10T00:53:08;20.50;92.70
1447;DHT22;717;51.522;7.266;2022-07-10T00:55:35;20.50;92.70
1447;DHT22;717;51.522;7.266;2022-07-10T00:58:02;20.50;92.70
1447;DHT22;717;51.522;7.266;2022-07-10T01:00:32;20.50;92.70
1447;DHT22;717;51.522;7.266;2022-07-10T01:02:59;20.50;92.70
1447;DHT22;717;51.522;7.266;2022-07-10T01:05:27;20.50;92.70
1447;DHT22;717;51.522;7.266;2022-07-10T01:07:54;20.50;92.80
1447;DHT22;717;51.522;7.266;2022-07-10T01:10:21;20.50;92.80
1447;DHT22;717;51.522;7.266;2022-07-10T01:12:48;20.50;92.90
1447;DHT22;717;51.522;7.266;2022-07-10T01:15:15;20.50;92.80
1447;DHT22;717;51.522;7.266;2022-07-10T01:17:42;20.50;92.90
1447;DHT22;717;51.522;7.266;2022-07-10T01:20:09;20.40;93.00
1447;DHT22;717;51.522;7.266;2022-07-10T01:22:38;20.40;93.00
1447;DHT22;717;51.522;7.266;2022-07-10T01:25:05;20.40;93.00
1447;DHT22;717;51.522;7.266;2022-07-10T01:27:32;20.40;93.00
1447;DHT22;717;51.522;7.266;2022-07-10T01:29:59;20.40;93.10
1447;DHT22;717;51.522;7.266;2022-07-10T01:32:26;20.40;93.10
1447;DHT22;717;51.522;7.266;2022-07-10T01:34:53;20.40;93.20
1447;DHT22;717;51.522;7.266;2022-07-10T01:37:19;20.40;93.20
1447;DHT22;717;51.522;7.266;2022-07-10T01:39:47;20.40;93.20
1447;DHT22;717;51.522;7.266;2022-07-10T01:42:14;20.40;93.20
1447;DHT22;717;51.522;7.266;2022-07-10T01:44:40;20.40;93.20
1447;DHT22;717;51.522;7.266;2022-07-10T01:47:07;20.40;93.20
1447;DHT22;717;51.522;7.266;2022-07-10T01:49:34;20.30;93.20
1447;DHT22;717;51.522;7.266;2022-07-10T01:52:03;20.30;93.30
1447;DHT22;717;51.522;7.266;2022-07-10T01:54:29;20.30;93.30
1447;DHT22;717;51.522;7.266;2022-07-10T01:56:57;20.30;93.30
1447;DHT22;717;51.522;7.266;2022-07-10T01:59:24;20.30;93.30
1447;DHT22;717;51.522;7.266;2022-07-10T02:01:51;20.30;93.30
1447;DHT22;717;51.522;7.266;2022-07-10T02:04:17;20.30;93.30
1447;DHT22;717;51.522;7.266;2022-07-10T02:07:01;20.30;93.40
1447;DHT22;717;51.522;7.266;2022-07-10T02:09:28;20.30;93.40
1447;DHT22;717;51.522;7.266;2022-07-10T02:11:56;20.30;93.50
1447;DHT22;717;51.522;7.266;2022-07-10T02:14:23;20.30;93.50
1447;DHT22;717;51.522;7.266;2022-07-10T02:16:49;20.40;93.50
1447;DHT22;717;51.522;7.266;2022-07-10T02:19:16;20.30;93.50
1447;DHT22;717;51.522;7.266;2022-07-10T02:21:42;20.30;93.50
1447;DHT22;717;51.522;7.266;2022-07-10T02:24:09;20.20;93.50
1447;DHT22;717;51.522;7.266;2022-07-10T02:26:36;20.20;93.50
1447;DHT22;717;51.522;7.266;2022-07-10T02:29:04;20.20;93.50
1447;DHT22;717;51.522;7.266;2022-07-10T02:31:30;20.20;93.60
1447;DHT22;717;51.522;7.266;2022-07-10T02:33:59;20.20;93.60
1447;DHT22;717;51.522;7.266;2022-07-10T02:36:26;20.20;93.70
1447;DHT22;717;51.522;7.266;2022-07-10T02:38:53;20.10;93.70
1447;DHT22;717;51.522;7.266;2022-07-10T02:41:19;20.10;93.80
1447;DHT22;717;51.522;7.266;2022-07-10T02:43:46;20.10;93.80
1447;DHT22;717;51.522;7.266;2022-07-10T02:46:14;20.10;93.80
1447;DHT22;717;51.522;7.266;2022-07-10T02:48:41;20.20;93.80
1447;DHT22;717;51.522;7.266;2022-07-10T02:51:07;20.10;93.80
1447;DHT22;717;51.522;7.266;2022-07-10T02:53:34;20.10;93.80
1447;DHT22;717;51.522;7.266;2022-07-10T02:56:01;20.20;93.90
1447;DHT22;717;51.522;7.266;2022-07-10T02:58:27;20.20;93.90
1447;DHT22;717;51.522;7.266;2022-07-10T03:00:54;20.10;94.20
1447;DHT22;717;51.522;7.266;2022-07-10T03:03:22;20.20;94.00
1447;DHT22;717;51.522;7.266;2022-07-10T03:05:49;20.20;94.00
1447;DHT22;717;51.522;7.266;2022-07-10T03:08:16;20.10;93.90
1447;DHT22;717;51.522;7.266;2022-07-10T03:10:43;20.10;93.90
1447;DHT22;717;51.522;7.266;2022-07-10T03:13:09;20.10;94.00
1447;DHT22;717;51.522;7.266;2022-07-10T03:15:36;20.00;94.00
1447;DHT22;717;51.522;7.266;2022-07-10T03:18:03;20.00;94.00
1447;DHT22;717;51.522;7.266;2022-07-10T03:20:31;20.00;94.10
1447;DHT22;717;51.522;7.266;2022-07-10T03:22:57;20.00;94.20
1447;DHT22;717;51.522;7.266;2022-07-10T03:25:24;19.90;94.20
1447;DHT22;717;51.522;7.266;2022-07-10T03:27:51;19.90;94.20
1447;DHT22;717;51.522;7.266;2022-07-10T03:30:17;19.90;94.30
1447;DHT22;717;51.522;7.266;2022-07-10T03:32:45;19.90;94.30
1447;DHT22;717;51.522;7.266;2022-07-10T03:35:12;19.90;94.30
1447;DHT22;717;51.522;7.266;2022-07-10T03:37:40;19.90;94.30
1447;DHT22;717;51.522;7.266;2022-07-10T03:40:07;19.90;94.40
1447;DHT22;717;51.522;7.266;2022-07-10T03:42:34;19.80;94.40
1447;DHT22;717;51.522;7.266;2022-07-10T03:45:01;19.80;94.40
1447;DHT22;717;51.522;7.266;2022-07-10T03:47:28;19.80;94.50
1447;DHT22;717;51.522;7.266;2022-07-10T03:49:55;19.70;94.50
1447;DHT22;717;51.522;7.266;2022-07-10T03:52:21;19.70;94.60
1447;DHT22;717;51.522;7.266;2022-07-10T03:54:49;19.70;94.60
1447;DHT22;717;51.522;7.266;2022-07-10T03:57:16;19.70;94.60
1447;DHT22;717;51.522;7.266;2022-07-10T04:00:00;19.70;94.70
1447;DHT22;717;51.522;7.266;2022-07-10T04:02:27;19.70;94.70
1447;DHT22;717;51.522;7.266;2022-07-10T04:04:53;19.70;94.70
1447;DHT22;717;51.522;7.266;2022-07-10T04:07:20;19.60;94.70
1447;DHT22;717;51.522;7.266;2022-07-10T04:09:47;19.60;94.70
1447;DHT22;717;51.522;7.266;2022-07-10T04:12:15;19.70;94.80
1447;DHT22;717;51.522;7.266;2022-07-10T04:14:41;19.60;94.80
1447;DHT22;717;51.522;7.266;2022-07-10T04:17:08;19.60;95.20
1447;DHT22;717;51.522;7.266;2022-07-10T04:19:35;19.60;94.80
1447;DHT22;717;51.522;7.266;2022-07-10T04:22:01;19.60;94.90
1447;DHT22;717;51.522;7.266;2022-07-10T04:24:28;19.60;94.90
1447;DHT22;717;51.522;7.266;2022-07-10T04:26:55;19.60;94.80
1447;DHT22;717;51.522;7.266;2022-07-10T04:29:23;19.60;94.90
1447;DHT22;717;51.522;7.266;2022-07-10T04:31:49;19.60;94.90
1447;DHT22;717;51.522;7.266;2022-07-10T04:34:16;19.50;94.90
1447;DHT22;717;51.522;7.266;2022-07-10T04:36:43;19.50;94.90
1447;DHT22;717;51.522;7.266;2022-07-10T04:39:09;19.50;94.90
1447;DHT22;717;51.522;7.266;2022-07-10T04:41:36;19.50;94.90
1447;DHT22;717;51.522;7.266;2022-07-10T04:44:03;19.50;94.90
1447;DHT22;717;51.522;7.266;2022-07-10T04:46:31;19.50;94.90
1447;DHT22;717;51.522;7.266;2022-07-10T04:48:58;19.40;94.90
1447;DHT22;717;51.522;7.266;2022-07-10T04:51:25;19.50;95.00
1447;DHT22;717;51.522;7.266;2022-07-10T04:53:52;19.40;95.00
1447;DHT22;717;51.522;7.266;2022-07-10T04:56:19;19.40;95.00
1447;DHT22;717;51.522;7.266;2022-07-10T04:58:45;19.50;95.00
1447;DHT22;717;51.522;7.266;2022-07-10T05:01:12;19.50;95.00
1447;DHT22;717;51.522;7.266;2022-07-10T05:03:40;19.50;95.00
1447;DHT22;717;51.522;7.266;2022-07-10T05:06:06;19.40;95.00
1447;DHT22;717;51.522;7.266;2022-07-10T05:08:33;19.40;95.00
1447;DHT22;717;51.522;7.266;2022-07-10T05:11:00;19.40;95.00
1447;DHT22;717;51.522;7.266;2022-07-10T05:13:26;19.50;95.00
1447;DHT22;717;51.522;7.266;2022-07-10T05:15:53;19.50;95.10
1447;DHT22;717;51.522;7.266;2022-07-10T05:18:20;19.40;95.10
1447;DHT22;717;51.522;7.266;2022-07-10T05:20:48;19.40;95.10
1447;DHT22;717;51.522;7.266;2022-07-10T05:23:15;19.40;95.10
1447;DHT22;717;51.522;7.266;2022-07-10T05:25:42;19.40;95.10
1447;DHT22;717;51.522;7.266;2022-07-10T05:28:09;19.40;95.50
1447;DHT22;717;51.522;7.266;2022-07-10T05:30:35;19.40;95.10
1447;DHT22;717;51.522;7.266;2022-07-10T05:33:02;19.40;95.20
1447;DHT22;717;51.522;7.266;2022-07-10T05:35:29;19.50;95.20
1447;DHT22;717;51.522;7.266;2022-07-10T05:37:57;19.50;95.20
1447;DHT22;717;51.522;7.266;2022-07-10T05:40:24;19.40;95.10
1447;DHT22;717;51.522;7.266;2022-07-10T05:42:51;19.50;95.30
1447;DHT22;717;51.522;7.266;2022-07-10T05:45:18;19.40;95.30
1447;DHT22;717;51.522;7.266;2022-07-10T05:47:44;19.40;95.30
1447;DHT22;717;51.522;7.266;2022-07-10T05:50:11;19.50;95.30
1447;DHT22;717;51.522;7.266;2022-07-10T05:52:38;19.50;95.40
1447;DHT22;717;51.522;7.266;2022-07-10T05:55:07;19.50;95.40
1447;DHT22;717;51.522;7.266;2022-07-10T05:57:34;19.50;95.40
1447;DHT22;717;51.522;7.266;2022-07-10T06:00:01;19.50;95.40
1447;DHT22;717;51.522;7.266;2022-07-10T06:02:29;19.50;95.40
1447;DHT22;717;51.522;7.266;2022-07-10T06:04:55;19.50;95.40
1447;DHT22;717;51.522;7.266;2022-07-10T06:07:22;19.40;95.50
1447;DHT22;717;51.522;7.266;2022-07-10T06:09:49;19.40;95.60
1447;DHT22;717;51.522;7.266;2022-07-10T06:12:17;19.40;95.60
1447;DHT22;717;51.522;7.266;2022-07-10T06:14:43;19.40;95.70
1447;DHT22;717;51.522;7.266;2022-07-10T06:17:10;19.40;95.80
1447;DHT22;717;51.522;7.266;2022-07-10T06:19:37;19.40;95.70
1447;DHT22;717;51.522;7.266;2022-07-10T06:22:04;19.40;95.60
1447;DHT22;717;51.522;7.266;2022-07-10T06:24:48;19.50;95.60
1447;DHT22;717;51.522;7.266;2022-07-10T06:27:16;19.50;95.50
1447;DHT22;717;51.522;7.266;2022-07-10T06:29:43;19.50;95.50
1447;DHT22;717;51.522;7.266;2022-07-10T06:32:10;19.60;95.50
1447;DHT22;717;51.522;7.266;2022-07-10T06:34:37;19.60;95.50
1447;DHT22;717;51.522;7.266;2022-07-10T06:37:05;19.60;95.40
1447;DHT22;717;51.522;7.266;2022-07-10T06:39:32;19.70;95.40
1447;DHT22;717;51.522;7.266;2022-07-10T06:42:00;19.70;95.40
1447;DHT22;717;51.522;7.266;2022-07-10T06:44:28;19.70;95.20
1447;DHT22;717;51.522;7.266;2022-07-10T06:46:55;19.70;95.20
1447;DHT22;717;51.522;7.266;2022-07-10T06:49:40;19.80;95.30
1447;DHT22;717;51.522;7.266;2022-07-10T06:52:07;19.70;95.20
1447;DHT22;717;51.522;7.266;2022-07-10T06:54:34;19.80;95.20
1447;DHT22;717;51.522;7.266;2022-07-10T06:57:01;19.80;95.20
1447;DHT22;717;51.522;7.266;2022-07-10T06:59:29;19.80;95.20
1447;DHT22;717;51.522;7.266;2022-07-10T07:01:56;19.80;95.20
1447;DHT22;717;51.522;7.266;2022-07-10T07:04:22;19.80;95.20
1447;DHT22;717;51.522;7.266;2022-07-10T07:06:49;19.80;95.20
1447;DHT22;717;51.522;7.266;2022-07-10T07:09:16;19.80;95.20
1447;DHT22;717;51.522;7.266;2022-07-10T07:11:42;19.90;95.30
1447;DHT22;717;51.522;7.266;2022-07-10T07:14:09;19.90;95.20
1447;DHT22;717;51.522;7.266;2022-07-10T07:16:37;19.90;95.20
1447;DHT22;717;51.522;7.266;2022-07-10T07:19:07;19.90;95.30
1447;DHT22;717;51.522;7.266;2022-07-10T07:21:35;19.90;95.30
1447;DHT22;717;51.522;7.266;2022-07-10T07:24:20;19.90;95.30
1447;DHT22;717;51.522;7.266;2022-07-10T07:26:47;19.90;95.20
1447;DHT22;717;51.522;7.266;2022-07-10T07:29:14;19.90;95.30
1447;DHT22;717;51.522;7.266;2022-07-10T07:31:42;19.90;95.30
1447;DHT22;717;51.522;7.266;2022-07-10T07:34:09;19.90;95.30
1447;DHT22;717;51.522;7.266;2022-07-10T07:36:36;19.80;95.30
1447;DHT22;717;51.522;7.266;2022-07-10T07:39:03;19.90;95.30
1447;DHT22;717;51.522;7.266;2022-07-10T07:41:30;19.90;95.30
1447;DHT22;717;51.522;7.266;2022-07-10T07:43:57;19.90;95.40
1447;DHT22;717;51.522;7.266;2022-07-10T07:46:23;19.90;95.40
1447;DHT22;717;51.522;7.266;2022-07-10T07:48:52;19.90;95.50
1447;DHT22;717;51.522;7.266;2022-07-10T07:51:18;19.90;95.50
1447;DHT22;717;51.522;7.266;2022-07-10T07:53:45;19.90;95.50
1447;DHT22;717;51.522;7.266;2022-07-10T07:56:12;19.90;95.60
1447;DHT22;717;51.522;7.266;2022-07-10T07:58:38;19.90;95.60
1447;DHT22;717;51.522;7.266;2022-07-10T08:01:05;19.90;95.60
1447;DHT22;717;51.522;7.266;2022-07-10T08:03:32;19.90;95.60
1447;DHT22;717;51.522;7.266;2022-07-10T08:06:00;20.00;95.70
1447;DHT22;717;51.522;7.266;2022-07-10T08:08:27;20.00;95.70
1447;DHT22;717;51.522;7.266;2022-07-10T08:10:54;20.00;95.70
1447;DHT22;717;51.522;7.266;2022-07-10T08:13:20;20.00;95.70
1447;DHT22;717;51.522;7.266;2022-07-10T08:15:47;20.00;95.80
1447;DHT22;717;51.522;7.266;2022-07-10T08:18:14;20.00;95.80
1447;DHT22;717;51.522;7.266;2022-07-10T08:20:41;20.00;95.90
1447;DHT22;717;51.522;7.266;2022-07-10T08:23:09;20.00;95.90
1447;DHT22;717;51.522;7.266;2022-07-10T08:25:36;20.00;95.90
1447;DHT22;717;51.522;7.266;2022-07-10T08:28:03;20.00;96.00
1447;DHT22;717;51.522;7.266;2022-07-10T08:30:31;20.00;96.10
1447;DHT22;717;51.522;7.266;2022-07-10T08:32:58;20.00;96.10
1447;DHT22;717;51.522;7.266;2022-07-10T08:35:25;20.00;96.10
1447;DHT22;717;51.522;7.266;2022-07-10T08:37:51;20.00;96.20
1447;DHT22;717;51.522;7.266;2022-07-10T08:40:22;20.00;96.20
1447;DHT22;717;51.522;7.266;2022-07-10T08:42:49;20.00;96.20
1447;DHT22;717;51.522;7.266;2022-07-10T08:45:15;20.00;96.30
1447;DHT22;717;51.522;7.266;2022-07-10T08:47:42;20.00;96.30
1447;DHT22;717;51.522;7.266;2022-07-10T08:50:16;20.00;96.40
1447;DHT22;717;51.522;7.266;2022-07-10T08:52:50;19.90;96.50
1447;DHT22;717;51.522;7.266;2022-07-10T08:55:24;19.90;96.60
1447;DHT22;717;51.522;7.266;2022-07-10T08:57:51;19.90;96.70
1447;DHT22;717;51.522;7.266;2022-07-10T09:00:18;19.80;96.80
1447;DHT22;717;51.522;7.266;2022-07-10T09:02:45;19.80;96.90
1447;DHT22;717;51.522;7.266;2022-07-10T09:05:11;19.80;97.10
1447;DHT22;717;51.522;7.266;2022-07-10T09:07:40;19.80;97.30
1447;DHT22;717;51.522;7.266;2022-07-10T09:10:08;19.80;97.50
1447;DHT22;717;51.522;7.266;2022-07-10T09:12:51;19.80;97.70
1447;DHT22;717;51.522;7.266;2022-07-10T09:15:20;19.80;98.20
1447;DHT22;717;51.522;7.266;2022-07-10T09:17:54;19.80;98.10
1447;DHT22;717;51.522;7.266;2022-07-10T09:20:32;19.80;98.40
1447;DHT22;717;51.522;7.266;2022-07-10T09:23:08;19.80;98.50
1447;DHT22;717;51.522;7.266;2022-07-10T09:25:36;19.90;98.50
1447;DHT22;717;51.522;7.266;2022-07-10T09:28:04;19.90;98.50
1447;DHT22;717;51.522;7.266;2022-07-10T09:30:35;19.90;98.70
1447;DHT22;717;51.522;7.266;2022-07-10T09:33:16;19.90;98.70
1447;DHT22;717;51.522;7.266;2022-07-10T09:36:04;19.90;99.00
1447;DHT22;717;51.522;7.266;2022-07-10T09:38:58;19.90;98.90
1447;DHT22;717;51.522;7.266;2022-07-10T09:41:27;19.90;99.20
1447;DHT22;717;51.522;7.266;2022-07-10T09:43:56;19.90;99.10
1447;DHT22;717;51.522;7.266;2022-07-10T09:46:25;19.90;99.30
1447;DHT22;717;51.522;7.266;2022-07-10T09:49:03;19.90;99.50
1447;DHT22;717;51.522;7.266;2022-07-10T09:51:31;19.90;99.60
1447;DHT22;717;51.522;7.266;2022-07-10T09:54:00;19.90;99.80
1447;DHT22;717;51.522;7.266;2022-07-10T09:56:32;19.90;99.80
1447;DHT22;717;51.522;7.266;2022-07-10T09:59:08;19.90;99.90
1447;DHT22;717;51.522;7.266;2022-07-10T10:01:36;19.90;99.80
1447;DHT22;717;51.522;7.266;2022-07-10T10:04:04;19.90;99.90
1447;DHT22;717;51.522;7.266;2022-07-10T10:06:33;19.90;99.90
1447;DHT22;717;51.522;7.266;2022-07-10T10:09:04;19.90;99.90
1447;DHT22;717;51.522;7.266;2022-07-10T10:11:35;19.90;99.90
1447;DHT22;717;51.522;7.266;2022-07-10T10:14:06;20.00;99.90
1447;DHT22;717;51.522;7.266;2022-07-10T10:16:34;20.00;99.90
1447;DHT22;717;51.522;7.266;2022-07-10T10:19:01;19.90;99.90
1447;DHT22;717;51.522;7.266;2022-07-10T10:21:46;20.00;99.90
1447;DHT22;717;51.522;7.266;2022-07-10T10:24:13;20.00;99.90
1447;DHT22;717;51.522;7.266;2022-07-10T10:26:41;20.10;99.90
1447;DHT22;717;51.522;7.266;2022-07-10T10:29:10;20.00;99.90
1447;DHT22;717;51.522;7.266;2022-07-10T10:31:37;20.00;99.90
1447;DHT22;717;51.522;7.266;2022-07-10T10:34:05;20.00;99.90
1447;DHT22;717;51.522;7.266;2022-07-10T10:36:45;20.00;99.90
1447;DHT22;717;51.522;7.266;2022-07-10T10:39:14;20.00;99.90
1447;DHT22;717;51.522;7.266;2022-07-10T10:41:46;20.00;99.90
1447;DHT22;717;51.522;7.266;2022-07-10T10:44:24;20.00;99.90
1447;DHT22;717;51.522;7.266;2022-07-10T10:47:02;20.00;99.90
1447;DHT22;717;51.522;7.266;2022-07-10T10:49:50;20.00;99.90
1447;DHT22;717;51.522;7.266;2022-07-10T10:52:18;20.10;99.90
1447;DHT22;717;51.522;7.266;2022-07-10T10:55:04;20.10;99.90
1447;DHT22;717;51.522;7.266;2022-07-10T10:57:38;20.10;99.90
1447;DHT22;717;51.522;7.266;2022-07-10T11:00:12;20.20;99.90
1447;DHT22;717;51.522;7.266;2022-07-10T11:02:40;20.20;99.90
1447;DHT22;717;51.522;7.266;2022-07-10T11:05:38;20.20;99.90
1447;DHT22;717;51.522;7.266;2022-07-10T11:08:07;20.20;99.90
1447;DHT22;717;51.522;7.266;2022-07-10T11:10:35;20.20;99.90
1447;DHT22;717;51.522;7.266;2022-07-10T11:13:03;20.30;99.90
1447;DHT22;717;51.522;7.266;2022-07-10T11:15:33;20.30;99.90
1447;DHT22;717;51.522;7.266;2022-07-10T11:18:03;20.30;99.90
1447;DHT22;717;51.522;7.266;2022-07-10T11:20:32;20.30;99.90
1447;DHT22;717;51.522;7.266;2022-07-10T11:23:23;20.30;99.90
1447;DHT22;717;51.522;7.266;2022-07-10T11:26:02;20.40;99.90
1447;DHT22;717;51.522;7.266;2022-07-10T11:28:42;20.30;99.90
1447;DHT22;717;51.522;7.266;2022-07-10T11:31:13;20.30;99.90
1447;DHT22;717;51.522;7.266;2022-07-10T11:33:41;20.30;99.90
1447;DHT22;717;51.522;7.266;2022-07-10T11:36:10;20.30;99.90
1447;DHT22;717;51.522;7.266;2022-07-10T11:38:39;20.30;99.90
1447;DHT22;717;51.522;7.266;2022-07-10T11:41:12;20.40;99.90
1447;DHT22;717;51.522;7.266;2022-07-10T11:43:46;20.40;99.90
1447;DHT22;717;51.522;7.266;2022-07-10T11:46:14;20.40;99.90
1447;DHT22;717;51.522;7.266;2022-07-10T11:48:41;20.40;99.90
1447;DHT22;717;51.522;7.266;2022-07-10T11:51:16;20.50;99.90
1447;DHT22;717;51.522;7.266;2022-07-10T11:53:53;20.50;99.90
1447;DHT22;717;51.522;7.266;2022-07-10T11:56:20;20.50;99.90
1447;DHT22;717;51.522;7.266;2022-07-10T11:58:54;20.60;99.90
1447;DHT22;717;51.522;7.266;2022-07-10T12:01:22;20.60;99.90
1447;DHT22;717;51.522;7.266;2022-07-10T12:03:59;20.60;99.90
1447;DHT22;717;51.522;7.266;2022-07-10T12:06:26;20.60;99.90
1447;DHT22;717;51.522;7.266;2022-07-10T12:08:53;20.60;99.90
1447;DHT22;717;51.522;7.266;2022-07-10T12:11:21;20.60;99.90
1447;DHT22;717;51.522;7.266;2022-07-10T12:13:49;20.60;99.90
1447;DHT22;717;51.522;7.266;2022-07-10T12:16:17;20.60;99.90
1447;DHT22;717;51.522;7.266;2022-07-10T12:18:46;20.60;99.90
1447;DHT22;717;51.522;7.266;2022-07-10T12:21:14;20.60;99.90
1447;DHT22;717;51.522;7.266;2022-07-10T12:23:45;20.60;99.90
1447;DHT22;717;51.522;7.266;2022-07-10T12:26:14;20.60;99.90
1447;DHT22;717;51.522;7.266;2022-07-10T12:28:49;20.60;99.90
1447;DHT22;717;51.522;7.266;2022-07-10T12:31:20;20.60;99.90
1447;DHT22;717;51.522;7.266;2022-07-10T12:33:52;20.60;99.90
1447;DHT22;717;51.522;7.266;2022-07-10T12:36:20;20.70;99.90
1447;DHT22;717;51.522;7.266;2022-07-10T12:38:53;20.70;99.90
1447;DHT22;717;51.522;7.266;2022-07-10T12:41:21;20.70;99.90
1447;DHT22;717;51.522;7.266;2022-07-10T12:43:50;20.70;99.90
1447;DHT22;717;51.522;7.266;2022-07-10T12:46:17;20.70;99.90
1447;DHT22;717;51.522;7.266;2022-07-10T12:49:01;20.80;99.90
1447;DHT22;717;51.522;7.266;2022-07-10T12:51:29;20.80;99.90
1447;DHT22;717;51.522;7.266;2022-07-10T12:53:56;20.90;99.90
1447;DHT22;717;51.522;7.266;2022-07-10T12:56:33;20.90;99.90
1447;DHT22;717;51.522;7.266;2022-07-10T12:59:02;21.00;99.90
1447;DHT22;717;51.522;7.266;2022-07-10T13:01:39;21.00;99.90
1447;DHT22;717;51.522;7.266;2022-07-10T13:04:07;21.00;99.90
1447;DHT22;717;51.522;7.266;2022-07-10T13:06:36;21.00;99.90
1447;DHT22;717;51.522;7.266;2022-07-10T13:09:18;21.00;99.90
1447;DHT22;717;51.522;7.266;2022-07-10T13:11:45;21.00;99.90
1447;DHT22;717;51.522;7.266;2022-07-10T13:14:12;21.00;99.90
1447;DHT22;717;51.522;7.266;2022-07-10T13:16:38;21.00;99.90
1447;DHT22;717;51.522;7.266;2022-07-10T13:19:07;21.00;99.90
1447;DHT22;717;51.522;7.266;2022-07-10T13:21:34;21.10;99.90
1447;DHT22;717;51.522;7.266;2022-07-10T13:24:02;21.20;99.90
1447;DHT22;717;51.522;7.266;2022-07-10T13:26:29;21.20;99.90
1447;DHT22;717;51.522;7.266;2022-07-10T13:28:56;21.20;99.90
1447;DHT22;717;51.522;7.266;2022-07-10T13:31:23;21.30;99.90
1447;DHT22;717;51.522;7.266;2022-07-10T13:33:49;21.40;99.90
1447;DHT22;717;51.522;7.266;2022-07-10T13:36:17;21.40;99.90
1447;DHT22;717;51.522;7.266;2022-07-10T13:38:44;21.50;99.90
1447;DHT22;717;51.522;7.266;2022-07-10T13:41:12;21.50;99.90
1447;DHT22;717;51.522;7.266;2022-07-10T13:43:39;21.50;99.90
1447;DHT22;717;51.522;7.266;2022-07-10T13:46:06;21.50;99.90
1447;DHT22;717;51.522;7.266;2022-07-10T13:48:33;21.40;99.90
1447;DHT22;717;51.522;7.266;2022-07-10T13:50:59;21.40;99.90
1447;DHT22;717;51.522;7.266;2022-07-10T13:53:27;21.40;99.90
1447;DHT22;717;51.522;7.266;2022-07-10T13:55:54;21.40;99.90
1447;DHT22;717;51.522;7.266;2022-07-10T13:58:21;21.40;99.90
1447;DHT22;717;51.522;7.266;2022-07-10T14:00:48;21.40;99.90
1447;DHT22;717;51.522;7.266;2022-07-10T14:03:15;21.40;99.90
1447;DHT22;717;51.522;7.266;2022-07-10T14:05:41;21.40;99.90
1447;DHT22;717;51.522;7.266;2022-07-10T14:08:08;21.50;99.90
1447;DHT22;717;51.522;7.266;2022-07-10T14:10:36;21.50;99.90
1447;DHT22;717;51.522;7.266;2022-07-10T14:13:03;21.60;99.90
1447;DHT22;717;51.522;7.266;2022-07-10T14:15:30;21.60;99.90
1447;DHT22;717;51.522;7.266;2022-07-10T14:17:57;21.60;99.90
1447;DHT22;717;51.522;7.266;2022-07-10T14:20:24;21.70;99.90
1447;DHT22;717;51.522;7.266;2022-07-10T14:22:51;21.70;99.90
1447;DHT22;717;51.522;7.266;2022-07-10T14:25:19;21.70;99.90
1447;DHT22;717;51.522;7.266;2022-07-10T14:27:52;21.70;99.90
1447;DHT22;717;51.522;7.266;2022-07-10T14:30:19;21.60;99.90
1447;DHT22;717;51.522;7.266;2022-07-10T14:32:46;21.60;99.90
1447;DHT22;717;51.522;7.266;2022-07-10T14:35:12;21.60;99.90
1447;DHT22;717;51.522;7.266;2022-07-10T14:37:39;21.60;99.90
1447;DHT22;717;51.522;7.266;2022-07-10T14:40:06;21.60;99.90
1447;DHT22;717;51.522;7.266;2022-07-10T14:42:33;21.60;99.90
1447;DHT22;717;51.522;7.266;2022-07-10T14:45:01;21.70;99.90
1447;DHT22;717;51.522;7.266;2022-07-10T14:47:28;21.70;99.90
1447;DHT22;717;51.522;7.266;2022-07-10T14:49:55;21.70;99.90
1447;DHT22;717;51.522;7.266;2022-07-10T14:52:22;21.70;99.90
1447;DHT22;717;51.522;7.266;2022-07-10T14:54:50;21.70;99.90
1447;DHT22;717;51.522;7.266;2022-07-10T14:57:17;21.70;99.90
1447;DHT22;717;51.522;7.266;2022-07-10T14:59:44;21.70;99.90
1447;DHT22;717;51.522;7.266;2022-07-10T15:02:12;21.60;99.90
1447;DHT22;717;51.522;7.266;2022-07-10T15:04:38;21.70;99.90
1447;DHT22;717;51.522;7.266;2022-07-10T15:07:05;21.60;99.90
1447;DHT22;717;51.522;7.266;2022-07-10T15:09:32;21.70;99.90
1447;DHT22;717;51.522;7.266;2022-07-10T15:11:59;21.70;99.90
1447;DHT22;717;51.522;7.266;2022-07-10T15:14:25;21.70;99.90
1447;DHT22;717;51.522;7.266;2022-07-10T15:16:53;21.70;99.90
1447;DHT22;717;51.522;7.266;2022-07-10T15:19:21;21.70;99.90
1447;DHT22;717;51.522;7.266;2022-07-10T15:21:48;21.70;99.90
1447;DHT22;717;51.522;7.266;2022-07-10T15:24:14;21.80;99.90
1447;DHT22;717;51.522;7.266;2022-07-10T15:26:41;21.80;99.90
1447;DHT22;717;51.522;7.266;2022-07-10T15:29:08;21.80;99.90
1447;DHT22;717;51.522;7.266;2022-07-10T15:31:34;21.80;99.90
1447;DHT22;717;51.522;7.266;2022-07-10T15:34:07;21.90;99.90
1447;DHT22;717;51.522;7.266;2022-07-10T15:36:35;21.90;99.90
1447;DHT22;717;51.522;7.266;2022-07-10T15:39:02;21.90;99.90
1447;DHT22;717;51.522;7.266;2022-07-10T15:41:28;21.90;99.90
1447;DHT22;717;51.522;7.266;2022-07-10T15:43:55;21.90;99.90
1447;DHT22;717;51.522;7.266;2022-07-10T15:46:22;22.00;99.90
1447;DHT22;717;51.522;7.266;2022-07-10T15:48:49;21.90;99.90
1447;DHT22;717;51.522;7.266;2022-07-10T15:51:15;21.90;99.90
1447;DHT22;717;51.522;7.266;2022-07-10T15:53:43;21.90;99.90
1447;DHT22;717;51.522;7.266;2022-07-10T15:56:10;21.90;99.90
1447;DHT22;717;51.522;7.266;2022-07-10T15:58:37;22.00;99.90
1447;DHT22;717;51.522;7.266;2022-07-10T16:01:04;21.90;99.90
1447;DHT22;717;51.522;7.266;2022-07-10T16:03:31;22.00;99.90
1447;DHT22;717;51.522;7.266;2022-07-10T16:05:57;22.00;99.90
1447;DHT22;717;51.522;7.266;2022-07-10T16:08:24;22.00;99.90
1447;DHT22;717;51.522;7.266;2022-07-10T16:10:52;22.00;99.90
1447;DHT22;717;51.522;7.266;2022-07-10T16:13:19;22.00;99.90
1447;DHT22;717;51.522;7.266;2022-07-10T16:15:45;22.00;99.90
1447;DHT22;717;51.522;7.266;2022-07-10T16:18:12;22.00;99.90
1447;DHT22;717;51.522;7.266;2022-07-10T16:20:40;22.00;99.90
1447;DHT22;717;51.522;7.266;2022-07-10T16:23:06;22.00;99.90
1447;DHT22;717;51.522;7.266;2022-07-10T16:25:33;22.00;99.90